sensor_id;sensor_type;location;lat;lon;timestamp;temperature;humidity
4002;DHT22;2015;48.670;9.060;2024-02-23T00:02:16;5.20;99.90
4002;DHT22;2015;48.670;9.060;2024-02-23T00:04:47;5.20;99.90
4002;DHT22;2015;48.670;9.060;2024-02-23T00:07:19;5.20;99.90
4002;DHT22;2015;48.670;9.060;2024-02-23T00:09:51;5.20;99.90
4002;DHT22;2015;48.670;9.060;2024-02-23T00:12:23;5.20;99.90
4002;DHT22;2015;48.670;9.060;2024-02-23T00:14:56;5.20;99.90
4002;DHT22;2015;48.670;9.060;2024-02-23T00:17:27;5.20;99.90
4002;DHT22;2015;48.670;9.060;2024-02-23T00:19:59;5.10;99.90
4002;DHT22;2015;48.670;9.060;2024-02-23T00:22:33;5.10;99.90
4002;DHT22;2015;48.670;9.060;2024-02-23T00:25:06;5.10;99.90
4002;DHT22;2015;48.670;9.060;2024-02-23T00:27:37;5.20;99.90
4002;DHT22;2015;48.670;9.060;2024-02-23T00:30:11;5.20;99.90
4002;DHT22;2015;48.670;9.060;2024-02-23T00:32:43;5.20;99.90
4002;DHT22;2015;48.670;9.060;2024-02-23T00:35:15;5.20;99.90
4002;DHT22;2015;48.670;9.060;2024-02-23T00:37:47;5.20;99.90
4002;DHT22;2015;48.670;9.060;2024-02-23T00:40:18;5.30;99.90
4002;DHT22;2015;48.670;9.060;2024-02-23T00:42:50;5.30;99.90
4002;DHT22;2015;48.670;9.060;2024-02-23T00:45:22;5.30;99.90
4002;DHT22;2015;48.670;9.060;2024-02-23T00:47:54;5.30;99.90
4002;DHT22;2015;48.670;9.060;2024-02-23T00:50:26;5.30;99.90
4002;DHT22;2015;48.670;9.060;2024-02-23T00:52:58;5.20;99.90
4002;DHT22;2015;48.670;9.060;2024-02-23T00:55:30;5.30;99.90
4002;DHT22;2015;48.670;9.060;2024-02-23T00:58:02;5.30;99.90
4002;DHT22;2015;48.670;9.060;2024-02-23T01:00:35;5.30;99.90
4002;DHT22;2015;48.670;9.060;2024-02-23T01:03:06;5.20;99.90
4002;DHT22;2015;48.670;9.060;2024-02-23T01:05:38;5.20;99.90
4002;DHT22;2015;48.670;9.060;2024-02-23T01:08:11;5.20;99.90
4002;DHT22;2015;48.670;9.060;2024-02-23T01:10:43;5.20;99.90
4002;DHT22;2015;48.670;9.060;2024-02-23T01:13:15;5.20;99.90
4002;DHT22;2015;48.670;9.060;2024-02-23T01:15:47;5.20;99.90
4002;DHT22;2015;48.670;9.060;2024-02-23T01:18:18;5.20;99.90
4002;DHT22;2015;48.670;9.060;2024-02-23T01:20:50;5.20;99.90
4002;DHT22;2015;48.670;9.060;2024-02-23T01:23:22;5.20;99.90
4002;DHT22;2015;48.670;9.060;2024-02-23T01:25:54;5.30;99.90
4002;DHT22;2015;48.670;9.060;2024-02-23T01:28:26;5.20;99.90
4002;DHT22;2015;48.670;9.060;2024-02-23T01:30:57;5.20;99.90
4002;DHT22;2015;48.670;9.060;2024-02-23T01:33:29;5.20;99.90
4002;DHT22;2015;48.670;9.060;2024-02-23T01:36:01;5.20;99.90
4002;DHT22;2015;48.670;9.060;2024-02-23T01:38:33;5.10;99.90
4002;DHT22;2015;48.670;9.060;2024-02-23T01:41:05;5.10;99.90
4002;DHT22;2015;48.670;9.060;2024-02-23T01:43:38;5.10;99.90
4002;DHT22;2015;48.670;9.060;2024-02-23T01:46:10;5.10;99.90
4002;DHT22;2015;48.670;9.060;2024-02-23T01:48:41;5.10;99.90
4002;DHT22;2015;48.670;9.060;2024-02-23T01:51:14;5.10;99.90
4002;DHT22;2015;48.670;9.060;2024-02-23T01:53:46;5.10;99.90
4002;DHT22;2015;48.670;9.060;2024-02-23T01:56:17;5.10;99.90
4002;DHT22;2015;48.670;9.060;2024-02-23T01:58:52;5.10;99.90
4002;DHT22;2015;48.670;9.060;2024-02-23T02:01:25;5.00;99.90
4002;DHT22;2015;48.670;9.060;2024-02-23T02:03:58;5.00;99.90
4002;DHT22;2015;48.670;9.060;2024-02-23T02:06:30;5.00;99.90
4002;DHT22;2015;48.670;9.060;2024-02-23T02:09:02;5.00;99.90
4002;DHT22;2015;48.670;9.060;2024-02-23T02:11:34;5.00;99.90
4002;DHT22;2015;48.670;9.060;2024-02-23T02:14:06;5.00;99.90
4002;DHT22;2015;48.670;9.060;2024-02-23T02:16:39;5.00;99.90
4002;DHT22;2015;48.670;9.060;2024-02-23T02:19:11;5.00;99.90
4002;DHT22;2015;48.670;9.060;2024-02-23T02:21:43;4.90;99.90
4002;DHT22;2015;48.670;9.060;2024-02-23T02:24:15;4.90;99.90
4002;DHT22;2015;48.670;9.060;2024-02-23T02:26:47;4.90;99.90
4002;DHT22;2015;48.670;9.060;2024-02-23T02:29:21;4.90;99.90
4002;DHT22;2015;48.670;9.060;2024-02-23T02:31:53;4.90;99.90
4002;DHT22;2015;48.670;9.060;2024-02-23T02:34:25;4.90;99.90
4002;DHT22;2015;48.670;9.060;2024-02-23T02:36:57;4.90;99.90
4002;DHT22;2015;48.670;9.060;2024-02-23T02:39:28;4.90;99.90
4002;DHT22;2015;48.670;9.060;2024-02-23T02:42:00;4.90;99.90
4002;DHT22;2015;48.670;9.060;2024-02-23T02:44:32;4.90;99.90
4002;DHT22;2015;48.670;9.060;2024-02-23T02:47:04;4.90;99.90
4002;DHT22;2015;48.670;9.060;2024-02-23T02:49:36;4.90;99.90
4002;DHT22;2015;48.670;9.060;2024-02-23T02:52:08;5.00;99.90
4002;DHT22;2015;48.670;9.060;2024-02-23T02:54:42;5.00;99.90
4002;DHT22;2015;48.670;9.060;2024-02-23T02:57:14;5.00;99.90
4002;DHT22;2015;48.670;9.060;2024-02-23T02:59:46;5.00;99.90
4002;DHT22;2015;48.670;9.060;2024-02-23T03:02:18;5.00;99.90
4002;DHT22;2015;48.670;9.060;2024-02-23T03:04:50;4.90;99.90
4002;DHT22;2015;48.670;9.060;2024-02-23T03:07:22;5.00;99.90
4002;DHT22;2015;48.670;9.060;2024-02-23T03:09:54;5.00;99.90
4002;DHT22;2015;48.670;9.060;2024-02-23T03:12:25;4.90;99.90
4002;DHT22;2015;48.670;9.060;2024-02-23T03:14:58;4.90;99.90
4002;DHT22;2015;48.670;9.060;2024-02-23T03:17:29;4.90;99.90
4002;DHT22;2015;48.670;9.060;2024-02-23T03:20:02;4.90;99.90
4002;DHT22;2015;48.670;9.060;2024-02-23T03:22:37;4.90;99.90
4002;DHT22;2015;48.670;9.060;2024-02-23T03:25:09;4.80;99.90
4002;DHT22;2015;48.670;9.060;2024-02-23T03:27:43;4.90;99.90
4002;DHT22;2015;48.670;9.060;2024-02-23T03:30:15;4.90;99.90
4002;DHT22;2015;48.670;9.060;2024-02-23T03:32:47;4.90;99.90
4002;DHT22;2015;48.670;9.060;2024-02-23T03:35:19;4.90;99.90
4002;DHT22;2015;48.670;9.060;2024-02-23T03:37:51;4.80;99.90
4002;DHT22;2015;48.670;9.060;2024-02-23T03:40:22;4.80;99.90
4002;DHT22;2015;48.670;9.060;2024-02-23T03:42:54;4.80;99.90
4002;DHT22;2015;48.670;9.060;2024-02-23T03:45:26;4.80;99.90
4002;DHT22;2015;48.670;9.060;2024-02-23T03:47:58;4.80;99.90
4002;DHT22;2015;48.670;9.060;2024-02-23T03:50:30;4.70;99.90
4002;DHT22;2015;48.670;9.060;2024-02-23T03:53:02;4.70;99.90
4002;DHT22;2015;48.670;9.060;2024-02-23T03:55:35;4.70;99.90
4002;DHT22;2015;48.670;9.060;2024-02-23T03:58:07;4.70;99.90
4002;DHT22;2015;48.670;9.060;2024-02-23T04:00:38;4.60;99.90
4002;DHT22;2015;48.670;9.060;2024-02-23T04:03:10;4.60;99.90
4002;DHT22;2015;48.670;9.060;2024-02-23T04:05:42;4.60;99.90
4002;DHT22;2015;48.670;9.060;2024-02-23T04:08:14;4.60;99.90
4002;DHT22;2015;48.670;9.060;2024-02-23T04:10:46;4.60;99.90
4002;DHT22;2015;48.670;9.060;2024-02-23T04:13:18;4.60;99.90
4002;DHT22;2015;48.670;9.060;2024-02-23T04:15:49;4.60;99.90
4002;DHT22;2015;48.670;9.060;2024-02-23T04:18:21;4.60;99.90
4002;DHT22;2015;48.670;9.060;2024-02-23T04:20:54;4.60;99.90
4002;DHT22;2015;48.670;9.060;2024-02-23T04:23:26;4.60;99.90
4002;DHT22;2015;48.670;9.060;2024-02-23T04:25:58;4.50;99.90
4002;DHT22;2015;48.670;9.060;2024-02-23T04:28:30;4.50;99.90
4002;DHT22;2015;48.670;9.060;2024-02-23T04:31:03;4.50;99.90
4002;DHT22;2015;48.670;9.060;2024-02-23T04:33:37;4.50;99.90
4002;DHT22;2015;48.670;9.060;2024-02-23T04:36:09;4.50;99.90
4002;DHT22;2015;48.670;9.060;2024-02-23T04:38:41;4.50;99.90
4002;DHT22;2015;48.670;9.060;2024-02-23T04:41:13;4.50;99.90
4002;DHT22;2015;48.670;9.060;2024-02-23T04:43:45;4.50;99.90
4002;DHT22;2015;48.670;9.060;2024-02-23T04:46:17;4.50;99.90
4002;DHT22;2015;48.670;9.060;2024-02-23T04:48:49;4.50;99.90
4002;DHT22;2015;48.670;9.060;2024-02-23T04:51:21;4.50;99.90
4002;DHT22;2015;48.670;9.060;2024-02-23T04:53:54;4.40;99.90
4002;DHT22;2015;48.670;9.060;2024-02-23T04:56:26;4.40;99.90
4002;DHT22;2015;48.670;9.060;2024-02-23T04:58:57;4.40;99.90
4002;DHT22;2015;48.670;9.060;2024-02-23T05:01:35;4.30;99.90
4002;DHT22;2015;48.670;9.060;2024-02-23T05:04:07;4.30;99.90
4002;DHT22;2015;48.670;9.060;2024-02-23T05:06:39;4.30;99.90
4002;DHT22;2015;48.670;9.060;2024-02-23T05:09:11;4.30;99.90
4002;DHT22;2015;48.670;9.060;2024-02-23T05:11:43;4.30;99.90
4002;DHT22;2015;48.670;9.060;2024-02-23T05:14:15;4.30;99.90
4002;DHT22;2015;48.670;9.060;2024-02-23T05:16:47;4.30;99.90
4002;DHT22;2015;48.670;9.060;2024-02-23T05:19:18;4.30;99.90
4002;DHT22;2015;48.670;9.060;2024-02-23T05:21:50;4.40;99.90
4002;DHT22;2015;48.670;9.060;2024-02-23T05:24:22;4.40;99.90
4002;DHT22;2015;48.670;9.060;2024-02-23T05:26:54;4.30;99.90
4002;DHT22;2015;48.670;9.060;2024-02-23T05:29:26;4.30;99.90
4002;DHT22;2015;48.670;9.060;2024-02-23T05:31:57;4.20;99.90
4002;DHT22;2015;48.670;9.060;2024-02-23T05:34:29;4.10;99.90
4002;DHT22;2015;48.670;9.060;2024-02-23T05:37:02;4.00;99.90
4002;DHT22;2015;48.670;9.060;2024-02-23T05:39:33;3.90;99.90
4002;DHT22;2015;48.670;9.060;2024-02-23T05:42:05;3.90;99.90
4002;DHT22;2015;48.670;9.060;2024-02-23T05:44:37;3.80;99.90
4002;DHT22;2015;48.670;9.060;2024-02-23T05:47:09;3.80;99.90
4002;DHT22;2015;48.670;9.060;2024-02-23T05:49:41;3.80;99.90
4002;DHT22;2015;48.670;9.060;2024-02-23T05:52:13;3.70;99.90
4002;DHT22;2015;48.670;9.060;2024-02-23T05:54:46;3.70;99.90
4002;DHT22;2015;48.670;9.060;2024-02-23T05:57:22;3.60;99.90
4002;DHT22;2015;48.670;9.060;2024-02-23T05:59:54;3.50;99.90
4002;DHT22;2015;48.670;9.060;2024-02-23T06:02:27;3.50;99.90
4002;DHT22;2015;48.670;9.060;2024-02-23T06:04:59;3.40;99.90
4002;DHT22;2015;48.670;9.060;2024-02-23T06:07:31;3.40;99.90
4002;DHT22;2015;48.670;9.060;2024-02-23T06:10:04;3.40;99.90
4002;DHT22;2015;48.670;9.060;2024-02-23T06:12:36;3.40;99.90
4002;DHT22;2015;48.670;9.060;2024-02-23T06:15:08;3.40;99.90
4002;DHT22;2015;48.670;9.060;2024-02-23T06:17:40;3.50;99.90
4002;DHT22;2015;48.670;9.060;2024-02-23T06:20:12;3.50;99.90
4002;DHT22;2015;48.670;9.060;2024-02-23T06:22:44;3.50;99.90
4002;DHT22;2015;48.670;9.060;2024-02-23T06:25:16;3.50;99.90
4002;DHT22;2015;48.670;9.060;2024-02-23T06:27:48;3.60;99.90
4002;DHT22;2015;48.670;9.060;2024-02-23T06:30:20;3.70;99.90
4002;DHT22;2015;48.670;9.060;2024-02-23T06:32:52;3.80;99.90
4002;DHT22;2015;48.670;9.060;2024-02-23T06:35:24;3.90;99.90
4002;DHT22;2015;48.670;9.060;2024-02-23T06:37:56;3.90;99.90
4002;DHT22;2015;48.670;9.060;2024-02-23T06:40:28;3.90;99.90
4002;DHT22;2015;48.670;9.060;2024-02-23T06:43:16;3.90;99.90
4002;DHT22;2015;48.670;9.060;2024-02-23T06:45:51;3.90;99.90
4002;DHT22;2015;48.670;9.060;2024-02-23T06:48:23;3.90;99.90
4002;DHT22;2015;48.670;9.060;2024-02-23T06:51:00;3.90;99.90
4002;DHT22;2015;48.670;9.060;2024-02-23T06:53:32;3.90;99.90
4002;DHT22;2015;48.670;9.060;2024-02-23T06:56:04;3.90;99.90
4002;DHT22;2015;48.670;9.060;2024-02-23T06:58:36;3.90;99.90
4002;DHT22;2015;48.670;9.060;2024-02-23T07:01:08;3.90;99.90
4002;DHT22;2015;48.670;9.060;2024-02-23T07:03:43;4.00;99.90
4002;DHT22;2015;48.670;9.060;2024-02-23T07:06:17;4.00;99.90
4002;DHT22;2015;48.670;9.060;2024-02-23T07:08:50;4.00;99.90
4002;DHT22;2015;48.670;9.060;2024-02-23T07:11:22;4.00;99.90
4002;DHT22;2015;48.670;9.060;2024-02-23T07:13:54;4.00;99.90
4002;DHT22;2015;48.670;9.060;2024-02-23T07:16:25;4.00;99.90
4002;DHT22;2015;48.670;9.060;2024-02-23T07:18:57;4.00;99.90
4002;DHT22;2015;48.670;9.060;2024-02-23T07:21:29;4.00;99.90
4002;DHT22;2015;48.670;9.060;2024-02-23T07:24:00;4.00;99.90
4002;DHT22;2015;48.670;9.060;2024-02-23T07:26:32;4.00;99.90
4002;DHT22;2015;48.670;9.060;2024-02-23T07:29:05;4.00;99.90
4002;DHT22;2015;48.670;9.060;2024-02-23T07:31:37;4.10;99.90
4002;DHT22;2015;48.670;9.060;2024-02-23T07:34:09;4.10;99.90
4002;DHT22;2015;48.670;9.060;2024-02-23T07:36:41;4.20;99.90
4002;DHT22;2015;48.670;9.060;2024-02-23T07:39:13;4.20;99.90
4002;DHT22;2015;48.670;9.060;2024-02-23T07:41:45;4.40;99.90
4002;DHT22;2015;48.670;9.060;2024-02-23T07:44:16;4.50;99.90
4002;DHT22;2015;48.670;9.060;2024-02-23T07:46:48;4.60;99.90
4002;DHT22;2015;48.670;9.060;2024-02-23T07:49:20;4.60;99.90
4002;DHT22;2015;48.670;9.060;2024-02-23T07:51:53;4.70;99.90
4002;DHT22;2015;48.670;9.060;2024-02-23T07:54:25;4.70;99.90
4002;DHT22;2015;48.670;9.060;2024-02-23T07:56:57;4.70;99.90
4002;DHT22;2015;48.670;9.060;2024-02-23T07:59:29;4.70;99.90
4002;DHT22;2015;48.670;9.060;2024-02-23T08:02:01;4.70;99.90
4002;DHT22;2015;48.670;9.060;2024-02-23T08:04:33;4.70;99.90
4002;DHT22;2015;48.670;9.060;2024-02-23T08:07:05;4.70;99.90
4002;DHT22;2015;48.670;9.060;2024-02-23T08:09:37;4.70;99.90
4002;DHT22;2015;48.670;9.060;2024-02-23T08:12:09;4.70;99.90
4002;DHT22;2015;48.670;9.060;2024-02-23T08:14:41;4.60;99.90
4002;DHT22;2015;48.670;9.060;2024-02-23T08:17:14;4.60;99.90
4002;DHT22;2015;48.670;9.060;2024-02-23T08:19:46;4.60;99.90
4002;DHT22;2015;48.670;9.060;2024-02-23T08:22:18;4.60;99.90
4002;DHT22;2015;48.670;9.060;2024-02-23T08:24:50;4.60;99.90
4002;DHT22;2015;48.670;9.060;2024-02-23T08:27:21;4.70;99.90
4002;DHT22;2015;48.670;9.060;2024-02-23T08:29:53;4.80;99.90
4002;DHT22;2015;48.670;9.060;2024-02-23T08:32:25;4.80;99.90
4002;DHT22;2015;48.670;9.060;2024-02-23T08:34:57;4.90;99.90
4002;DHT22;2015;48.670;9.060;2024-02-23T08:37:31;4.90;99.90
4002;DHT22;2015;48.670;9.060;2024-02-23T08:40:04;4.90;99.90
4002;DHT22;2015;48.670;9.060;2024-02-23T08:42:38;4.80;99.90
4002;DHT22;2015;48.670;9.060;2024-02-23T08:45:10;4.80;99.90
4002;DHT22;2015;48.670;9.060;2024-02-23T08:47:44;4.90;99.90
4002;DHT22;2015;48.670;9.060;2024-02-23T08:50:16;4.90;99.90
4002;DHT22;2015;48.670;9.060;2024-02-23T08:52:48;5.00;99.90
4002;DHT22;2015;48.670;9.060;2024-02-23T08:55:20;5.00;99.90
4002;DHT22;2015;48.670;9.060;2024-02-23T08:57:52;5.00;99.90
4002;DHT22;2015;48.670;9.060;2024-02-23T09:00:24;5.00;99.90
4002;DHT22;2015;48.670;9.060;2024-02-23T09:02:56;5.00;99.90
4002;DHT22;2015;48.670;9.060;2024-02-23T09:05:28;5.00;99.90
4002;DHT22;2015;48.670;9.060;2024-02-23T09:08:00;5.00;99.90
4002;DHT22;2015;48.670;9.060;2024-02-23T09:10:32;4.90;99.90
4002;DHT22;2015;48.670;9.060;2024-02-23T09:13:04;4.90;99.90
4002;DHT22;2015;48.670;9.060;2024-02-23T09:15:35;4.90;99.90
4002;DHT22;2015;48.670;9.060;2024-02-23T09:18:07;5.00;99.90
4002;DHT22;2015;48.670;9.060;2024-02-23T09:20:39;5.00;99.90
4002;DHT22;2015;48.670;9.060;2024-02-23T09:23:11;5.10;99.90
4002;DHT22;2015;48.670;9.060;2024-02-23T09:25:43;5.30;99.90
4002;DHT22;2015;48.670;9.060;2024-02-23T09:28:15;5.40;99.90
4002;DHT22;2015;48.670;9.060;2024-02-23T09:30:47;5.50;99.90
4002;DHT22;2015;48.670;9.060;2024-02-23T09:33:18;5.60;99.90
4002;DHT22;2015;48.670;9.060;2024-02-23T09:35:50;5.70;99.90
4002;DHT22;2015;48.670;9.060;2024-02-23T09:38:22;5.70;99.90
4002;DHT22;2015;48.670;9.060;2024-02-23T09:40:56;5.70;99.90
4002;DHT22;2015;48.670;9.060;2024-02-23T09:43:31;5.90;99.90
4002;DHT22;2015;48.670;9.060;2024-02-23T09:46:04;6.10;99.90
4002;DHT22;2015;48.670;9.060;2024-02-23T09:48:37;6.30;99.90
4002;DHT22;2015;48.670;9.060;2024-02-23T09:51:13;6.60;99.90
4002;DHT22;2015;48.670;9.060;2024-02-23T09:53:47;6.80;99.90
4002;DHT22;2015;48.670;9.060;2024-02-23T09:56:25;7.00;99.90
4002;DHT22;2015;48.670;9.060;2024-02-23T09:59:01;7.10;99.90
4002;DHT22;2015;48.670;9.060;2024-02-23T10:01:33;7.10;99.90
4002;DHT22;2015;48.670;9.060;2024-02-23T10:04:06;7.50;99.90
4002;DHT22;2015;48.670;9.060;2024-02-23T10:06:38;8.50;99.90
4002;DHT22;2015;48.670;9.060;2024-02-23T10:09:10;9.30;99.90
4002;DHT22;2015;48.670;9.060;2024-02-23T10:11:44;10.00;99.90
4002;DHT22;2015;48.670;9.060;2024-02-23T10:14:16;10.00;99.90
4002;DHT22;2015;48.670;9.060;2024-02-23T10:16:48;9.20;99.90
4002;DHT22;2015;48.670;9.060;2024-02-23T10:19:25;8.70;99.90
4002;DHT22;2015;48.670;9.060;2024-02-23T10:22:01;8.50;99.90
4002;DHT22;2015;48.670;9.060;2024-02-23T10:24:33;8.90;99.90
4002;DHT22;2015;48.670;9.060;2024-02-23T10:27:05;9.50;99.90
4002;DHT22;2015;48.670;9.060;2024-02-23T10:29:36;9.60;99.90
4002;DHT22;2015;48.670;9.060;2024-02-23T10:32:11;9.50;99.90
4002;DHT22;2015;48.670;9.060;2024-02-23T10:34:48;9.20;99.90
4002;DHT22;2015;48.670;9.060;2024-02-23T10:37:22;8.90;99.90
4002;DHT22;2015;48.670;9.060;2024-02-23T10:39:57;8.70;99.90
4002;DHT22;2015;48.670;9.060;2024-02-23T10:42:33;8.50;99.90
4002;DHT22;2015;48.670;9.060;2024-02-23T10:45:06;8.80;99.90
4002;DHT22;2015;48.670;9.060;2024-02-23T10:47:38;9.30;99.90
4002;DHT22;2015;48.670;9.060;2024-02-23T10:50:10;9.70;99.90
4002;DHT22;2015;48.670;9.060;2024-02-23T10:52:46;10.10;99.90
4002;DHT22;2015;48.670;9.060;2024-02-23T10:55:21;9.70;99.90
4002;DHT22;2015;48.670;9.060;2024-02-23T10:57:55;9.00;99.90
4002;DHT22;2015;48.670;9.060;2024-02-23T11:00:28;8.50;99.90
4002;DHT22;2015;48.670;9.060;2024-02-23T11:03:00;8.50;99.90
4002;DHT22;2015;48.670;9.060;2024-02-23T11:05:33;8.50;99.90
4002;DHT22;2015;48.670;9.060;2024-02-23T11:08:06;8.20;99.90
4002;DHT22;2015;48.670;9.060;2024-02-23T11:10:43;8.00;99.90
4002;DHT22;2015;48.670;9.060;2024-02-23T11:13:37;8.00;99.90
4002;DHT22;2015;48.670;9.060;2024-02-23T11:16:09;8.00;99.90
4002;DHT22;2015;48.670;9.060;2024-02-23T11:18:41;7.90;99.90
4002;DHT22;2015;48.670;9.060;2024-02-23T11:21:14;7.60;99.90
4002;DHT22;2015;48.670;9.060;2024-02-23T11:23:48;7.60;99.90
4002;DHT22;2015;48.670;9.060;2024-02-23T11:26:23;7.50;99.90
4002;DHT22;2015;48.670;9.060;2024-02-23T11:28:55;7.40;99.90
4002;DHT22;2015;48.670;9.060;2024-02-23T11:31:29;7.40;99.90
4002;DHT22;2015;48.670;9.060;2024-02-23T11:34:01;7.50;99.90
4002;DHT22;2015;48.670;9.060;2024-02-23T11:36:34;7.60;99.90
4002;DHT22;2015;48.670;9.060;2024-02-23T11:39:06;7.60;99.90
4002;DHT22;2015;48.670;9.060;2024-02-23T11:41:38;7.70;99.90
4002;DHT22;2015;48.670;9.060;2024-02-23T11:44:10;7.80;99.90
4002;DHT22;2015;48.670;9.060;2024-02-23T11:46:46;7.80;99.90
4002;DHT22;2015;48.670;9.060;2024-02-23T11:49:18;7.70;99.90
4002;DHT22;2015;48.670;9.060;2024-02-23T11:51:50;7.70;99.90
4002;DHT22;2015;48.670;9.060;2024-02-23T11:54:22;7.70;99.90
4002;DHT22;2015;48.670;9.060;2024-02-23T11:56:54;7.70;99.90
4002;DHT22;2015;48.670;9.060;2024-02-23T11:59:27;7.70;99.90
4002;DHT22;2015;48.670;9.060;2024-02-23T12:01:59;7.70;99.90
4002;DHT22;2015;48.670;9.060;2024-02-23T12:04:35;7.90;99.90
4002;DHT22;2015;48.670;9.060;2024-02-23T12:07:08;8.00;99.90
4002;DHT22;2015;48.670;9.060;2024-02-23T12:09:40;7.90;99.90
4002;DHT22;2015;48.670;9.060;2024-02-23T12:12:13;7.80;99.90
4002;DHT22;2015;48.670;9.060;2024-02-23T12:14:45;7.80;99.90
4002;DHT22;2015;48.670;9.060;2024-02-23T12:17:17;7.70;99.90
4002;DHT22;2015;48.670;9.060;2024-02-23T12:19:49;7.70;99.90
4002;DHT22;2015;48.670;9.060;2024-02-23T12:22:25;7.80;99.90
4002;DHT22;2015;48.670;9.060;2024-02-23T12:24:59;7.90;99.90
4002;DHT22;2015;48.670;9.060;2024-02-23T12:27:31;7.90;99.90
4002;DHT22;2015;48.670;9.060;2024-02-23T12:30:04;7.90;99.90
4002;DHT22;2015;48.670;9.060;2024-02-23T12:32:35;7.80;99.90
4002;DHT22;2015;48.670;9.060;2024-02-23T12:35:10;7.80;99.90
4002;DHT22;2015;48.670;9.060;2024-02-23T12:37:43;7.80;99.90
4002;DHT22;2015;48.670;9.060;2024-02-23T12:40:16;7.90;99.90
4002;DHT22;2015;48.670;9.060;2024-02-23T12:42:48;7.90;99.90
4002;DHT22;2015;48.670;9.060;2024-02-23T12:45:20;7.90;99.90
4002;DHT22;2015;48.670;9.060;2024-02-23T12:47:52;7.80;99.90
4002;DHT22;2015;48.670;9.060;2024-02-23T12:50:23;7.70;99.90
4002;DHT22;2015;48.670;9.060;2024-02-23T12:52:55;7.60;99.90
4002;DHT22;2015;48.670;9.060;2024-02-23T12:55:27;7.50;99.90
4002;DHT22;2015;48.670;9.060;2024-02-23T12:57:59;7.50;99.90
4002;DHT22;2015;48.670;9.060;2024-02-23T13:00:30;7.50;99.90
4002;DHT22;2015;48.670;9.060;2024-02-23T13:03:02;7.60;99.90
4002;DHT22;2015;48.670;9.060;2024-02-23T13:05:34;7.60;99.90
4002;DHT22;2015;48.670;9.060;2024-02-23T13:08:06;7.80;99.90
4002;DHT22;2015;48.670;9.060;2024-02-23T13:10:38;7.80;99.90
4002;DHT22;2015;48.670;9.060;2024-02-23T13:13:10;8.00;99.90
4002;DHT22;2015;48.670;9.060;2024-02-23T13:15:42;8.10;99.90
4002;DHT22;2015;48.670;9.060;2024-02-23T13:18:14;8.00;99.90
4002;DHT22;2015;48.670;9.060;2024-02-23T13:20:46;8.00;99.90
4002;DHT22;2015;48.670;9.060;2024-02-23T13:23:18;7.90;99.90
4002;DHT22;2015;48.670;9.060;2024-02-23T13:25:50;7.90;99.90
4002;DHT22;2015;48.670;9.060;2024-02-23T13:28:21;7.90;99.90
4002;DHT22;2015;48.670;9.060;2024-02-23T13:30:54;7.90;99.90
4002;DHT22;2015;48.670;9.060;2024-02-23T13:33:25;7.90;99.90
4002;DHT22;2015;48.670;9.060;2024-02-23T13:35:58;8.00;99.90
4002;DHT22;2015;48.670;9.060;2024-02-23T13:38:29;8.00;99.90
4002;DHT22;2015;48.670;9.060;2024-02-23T13:41:02;8.10;99.90
4002;DHT22;2015;48.670;9.060;2024-02-23T13:43:33;8.20;99.90
4002;DHT22;2015;48.670;9.060;2024-02-23T13:46:05;8.30;99.90
4002;DHT22;2015;48.670;9.060;2024-02-23T13:48:38;8.30;99.90
4002;DHT22;2015;48.670;9.060;2024-02-23T13:51:10;8.20;99.90
4002;DHT22;2015;48.670;9.060;2024-02-23T13:53:41;8.20;99.90
4002;DHT22;2015;48.670;9.060;2024-02-23T13:56:13;8.20;99.90
4002;DHT22;2015;48.670;9.060;2024-02-23T13:58:45;8.10;99.90
4002;DHT22;2015;48.670;9.060;2024-02-23T14:01:17;8.10;99.90
4002;DHT22;2015;48.670;9.060;2024-02-23T14:03:49;8.20;99.90
4002;DHT22;2015;48.670;9.060;2024-02-23T14:06:21;8.20;99.90
4002;DHT22;2015;48.670;9.060;2024-02-23T14:08:53;8.10;99.90
4002;DHT22;2015;48.670;9.060;2024-02-23T14:11:25;8.00;99.90
4002;DHT22;2015;48.670;9.060;2024-02-23T14:13:57;8.00;99.90
4002;DHT22;2015;48.670;9.060;2024-02-23T14:16:29;8.10;99.90
4002;DHT22;2015;48.670;9.060;2024-02-23T14:19:01;8.20;99.90
4002;DHT22;2015;48.670;9.060;2024-02-23T14:21:33;8.30;99.90
4002;DHT22;2015;48.670;9.060;2024-02-23T14:24:06;8.40;99.90
4002;DHT22;2015;48.670;9.060;2024-02-23T14:26:38;8.40;99.90
4002;DHT22;2015;48.670;9.060;2024-02-23T14:29:10;8.40;99.90
4002;DHT22;2015;48.670;9.060;2024-02-23T14:31:42;8.40;99.90
4002;DHT22;2015;48.670;9.060;2024-02-23T14:34:13;8.40;99.90
4002;DHT22;2015;48.670;9.060;2024-02-23T14:36:45;8.20;99.90
4002;DHT22;2015;48.670;9.060;2024-02-23T14:39:18;8.20;99.90
4002;DHT22;2015;48.670;9.060;2024-02-23T14:41:50;8.10;99.90
4002;DHT22;2015;48.670;9.060;2024-02-23T14:44:21;8.00;99.90
4002;DHT22;2015;48.670;9.060;2024-02-23T14:46:53;8.00;99.90
4002;DHT22;2015;48.670;9.060;2024-02-23T14:49:25;7.90;99.90
4002;DHT22;2015;48.670;9.060;2024-02-23T14:51:57;7.80;99.90
4002;DHT22;2015;48.670;9.060;2024-02-23T14:54:29;7.90;99.90
4002;DHT22;2015;48.670;9.060;2024-02-23T14:57:01;7.90;99.90
4002;DHT22;2015;48.670;9.060;2024-02-23T14:59:33;7.80;99.90
4002;DHT22;2015;48.670;9.060;2024-02-23T15:02:08;7.80;99.90
4002;DHT22;2015;48.670;9.060;2024-02-23T15:04:40;7.80;99.90
4002;DHT22;2015;48.670;9.060;2024-02-23T15:07:12;7.70;99.90
4002;DHT22;2015;48.670;9.060;2024-02-23T15:09:44;7.70;99.90
4002;DHT22;2015;48.670;9.060;2024-02-23T15:12:16;7.80;99.90
4002;DHT22;2015;48.670;9.060;2024-02-23T15:14:48;7.80;99.90
4002;DHT22;2015;48.670;9.060;2024-02-23T15:17:20;7.80;99.90
4002;DHT22;2015;48.670;9.060;2024-02-23T15:19:51;7.80;99.90
4002;DHT22;2015;48.670;9.060;2024-02-23T15:22:24;7.80;99.90
4002;DHT22;2015;48.670;9.060;2024-02-23T15:24:57;7.80;99.90
4002;DHT22;2015;48.670;9.060;2024-02-23T15:27:31;7.80;99.90
4002;DHT22;2015;48.670;9.060;2024-02-23T15:30:05;7.80;99.90
4002;DHT22;2015;48.670;9.060;2024-02-23T15:32:39;7.80;99.90
4002;DHT22;2015;48.670;9.060;2024-02-23T15:35:11;7.80;99.90
4002;DHT22;2015;48.670;9.060;2024-02-23T15:37:43;7.80;99.90
4002;DHT22;2015;48.670;9.060;2024-02-23T15:40:15;7.80;99.90
4002;DHT22;2015;48.670;9.060;2024-02-23T15:42:47;7.70;99.90
4002;DHT22;2015;48.670;9.060;2024-02-23T15:45:21;7.70;99.90
4002;DHT22;2015;48.670;9.060;2024-02-23T15:47:52;7.60;99.90
4002;DHT22;2015;48.670;9.060;2024-02-23T15:50:24;7.50;99.90
4002;DHT22;2015;48.670;9.060;2024-02-23T15:53:19;7.50;99.90
4002;DHT22;2015;48.670;9.060;2024-02-23T15:55:51;7.40;99.90
4002;DHT22;2015;48.670;9.060;2024-02-23T15:58:22;7.40;99.90
4002;DHT22;2015;48.670;9.060;2024-02-23T16:00:54;7.40;99.90
4002;DHT22;2015;48.670;9.060;2024-02-23T16:03:27;7.30;99.90
4002;DHT22;2015;48.670;9.060;2024-02-23T16:05:59;7.30;99.90
4002;DHT22;2015;48.670;9.060;2024-02-23T16:08:42;7.30;99.90
4002;DHT22;2015;48.670;9.060;2024-02-23T16:11:15;7.20;99.90
4002;DHT22;2015;48.670;9.060;2024-02-23T16:13:47;7.20;99.90
4002;DHT22;2015;48.670;9.060;2024-02-23T16:16:19;7.20;99.90
4002;DHT22;2015;48.670;9.060;2024-02-23T16:18:51;7.20;99.90
4002;DHT22;2015;48.670;9.060;2024-02-23T16:21:23;7.20;99.90
4002;DHT22;2015;48.670;9.060;2024-02-23T16:23:54;7.10;99.90
4002;DHT22;2015;48.670;9.060;2024-02-23T16:26:27;7.10;99.90
4002;DHT22;2015;48.670;9.060;2024-02-23T16:28:59;7.10;99.90
4002;DHT22;2015;48.670;9.060;2024-02-23T16:31:33;7.10;99.90
4002;DHT22;2015;48.670;9.060;2024-02-23T16:34:05;7.00;99.90
4002;DHT22;2015;48.670;9.060;2024-02-23T16:36:37;6.90;99.90
4002;DHT22;2015;48.670;9.060;2024-02-23T16:39:09;6.90;99.90
4002;DHT22;2015;48.670;9.060;2024-02-23T16:41:41;6.80;99.90
4002;DHT22;2015;48.670;9.060;2024-02-23T16:44:12;6.70;99.90
4002;DHT22;2015;48.670;9.060;2024-02-23T16:46:48;6.60;99.90
4002;DHT22;2015;48.670;9.060;2024-02-23T16:49:20;6.60;99.90
4002;DHT22;2015;48.670;9.060;2024-02-23T16:51:52;6.50;99.90